sensor_id;sensor_type;location;lat;lon;timestamp;P1;durP1;ratioP1;P2;durP2;ratioP2
8104;SDS011;4095;48.942;9.104;2023-02-24T00:02:12;27.00;;;21.90;;
8104;SDS011;4095;48.942;9.104;2023-02-24T00:04:39;27.70;;;21.33;;
8104;SDS011;4095;48.942;9.104;2023-02-24T00:07:08;27.33;;;21.00;;
8104;SDS011;4095;48.942;9.104;2023-02-24T00:09:35;22.50;;;17.83;;
8104;SDS011;4095;48.942;9.104;2023-02-24T00:12:03;24.40;;;19.20;;
8104;SDS011;4095;48.942;9.104;2023-02-24T00:14:33;23.60;;;19.43;;
8104;SDS011;4095;48.942;9.104;2023-02-24T00:17:00;23.87;;;19.00;;
8104;SDS011;4095;48.942;9.104;2023-02-24T00:19:27;25.93;;;20.13;;
8104;SDS011;4095;48.942;9.104;2023-02-24T00:21:56;28.13;;;20.43;;
8104;SDS011;4095;48.942;9.104;2023-02-24T00:24:23;29.50;;;21.30;;
8104;SDS011;4095;48.942;9.104;2023-02-24T00:26:56;27.47;;;21.50;;
8104;SDS011;4095;48.942;9.104;2023-02-24T00:29:23;26.40;;;20.00;;
8104;SDS011;4095;48.942;9.104;2023-02-24T00:31:51;30.87;;;20.87;;
8104;SDS011;4095;48.942;9.104;2023-02-24T00:34:33;27.70;;;21.77;;
8104;SDS011;4095;48.942;9.104;2023-02-24T00:37:01;28.83;;;21.00;;
8104;SDS011;4095;48.942;9.104;2023-02-24T00:39:31;31.27;;;22.77;;
8104;SDS011;4095;48.942;9.104;2023-02-24T00:41:59;27.90;;;22.13;;
8104;SDS011;4095;48.942;9.104;2023-02-24T00:44:37;29.10;;;22.13;;
8104;SDS011;4095;48.942;9.104;2023-02-24T00:47:04;26.27;;;21.10;;
8104;SDS011;4095;48.942;9.104;2023-02-24T00:49:32;30.13;;;21.77;;
8104;SDS011;4095;48.942;9.104;2023-02-24T00:51:59;26.37;;;21.47;;
8104;SDS011;4095;48.942;9.104;2023-02-24T00:54:28;29.87;;;22.43;;
8104;SDS011;4095;48.942;9.104;2023-02-24T00:56:54;35.40;;;23.33;;
8104;SDS011;4095;48.942;9.104;2023-02-24T00:59:21;33.07;;;23.60;;
8104;SDS011;4095;48.942;9.104;2023-02-24T01:01:48;37.13;;;24.23;;
8104;SDS011;4095;48.942;9.104;2023-02-24T01:04:15;31.37;;;22.83;;
8104;SDS011;4095;48.942;9.104;2023-02-24T01:06:43;35.57;;;24.23;;
8104;SDS011;4095;48.942;9.104;2023-02-24T01:09:11;32.33;;;23.77;;
8104;SDS011;4095;48.942;9.104;2023-02-24T01:11:42;33.50;;;24.43;;
8104;SDS011;4095;48.942;9.104;2023-02-24T01:14:29;26.97;;;22.30;;
8104;SDS011;4095;48.942;9.104;2023-02-24T01:16:56;28.00;;;22.70;;
8104;SDS011;4095;48.942;9.104;2023-02-24T01:19:24;26.73;;;22.07;;
8104;SDS011;4095;48.942;9.104;2023-02-24T01:21:55;26.53;;;22.53;;
8104;SDS011;4095;48.942;9.104;2023-02-24T01:24:22;29.77;;;23.10;;
8104;SDS011;4095;48.942;9.104;2023-02-24T01:26:48;27.90;;;22.30;;
8104;SDS011;4095;48.942;9.104;2023-02-24T01:29:14;29.07;;;23.00;;
8104;SDS011;4095;48.942;9.104;2023-02-24T01:31:40;29.50;;;23.60;;
8104;SDS011;4095;48.942;9.104;2023-02-24T01:34:07;29.20;;;22.23;;
8104;SDS011;4095;48.942;9.104;2023-02-24T01:36:35;26.73;;;21.70;;
8104;SDS011;4095;48.942;9.104;2023-02-24T01:39:03;30.03;;;22.17;;
8104;SDS011;4095;48.942;9.104;2023-02-24T01:41:35;28.83;;;22.43;;
8104;SDS011;4095;48.942;9.104;2023-02-24T01:44:06;25.90;;;22.73;;
8104;SDS011;4095;48.942;9.104;2023-02-24T01:46:53;27.77;;;22.47;;
8104;SDS011;4095;48.942;9.104;2023-02-24T01:52:03;27.97;;;22.57;;
8104;SDS011;4095;48.942;9.104;2023-02-24T01:54:41;29.83;;;23.20;;
8104;SDS011;4095;48.942;9.104;2023-02-24T01:57:11;26.53;;;21.77;;
8104;SDS011;4095;48.942;9.104;2023-02-24T01:59:41;26.37;;;21.93;;
8104;SDS011;4095;48.942;9.104;2023-02-24T02:02:08;31.10;;;23.27;;
8104;SDS011;4095;48.942;9.104;2023-02-24T02:04:48;28.17;;;22.53;;
8104;SDS011;4095;48.942;9.104;2023-02-24T02:07:30;26.80;;;21.47;;
8104;SDS011;4095;48.942;9.104;2023-02-24T02:09:57;26.23;;;21.57;;
8104;SDS011;4095;48.942;9.104;2023-02-24T02:12:28;26.60;;;21.63;;
8104;SDS011;4095;48.942;9.104;2023-02-24T02:14:56;26.10;;;21.43;;
8104;SDS011;4095;48.942;9.104;2023-02-24T02:36:48;25.80;;;21.43;;
8104;SDS011;4095;48.942;9.104;2023-02-24T02:45:44;29.77;;;23.87;;
8104;SDS011;4095;48.942;9.104;2023-02-24T02:50:53;30.93;;;23.93;;
8104;SDS011;4095;48.942;9.104;2023-02-24T02:56:27;33.93;;;25.60;;
8104;SDS011;4095;48.942;9.104;2023-02-24T02:58:57;30.33;;;24.50;;
8104;SDS011;4095;48.942;9.104;2023-02-24T03:01:28;34.13;;;25.40;;
8104;SDS011;4095;48.942;9.104;2023-02-24T03:04:12;32.20;;;26.03;;
8104;SDS011;4095;48.942;9.104;2023-02-24T03:09:17;35.10;;;26.57;;
8104;SDS011;4095;48.942;9.104;2023-02-24T03:11:50;32.73;;;27.83;;
8104;SDS011;4095;48.942;9.104;2023-02-24T03:14:21;37.53;;;27.90;;
8104;SDS011;4095;48.942;9.104;2023-02-24T03:16:55;35.93;;;27.87;;
8104;SDS011;4095;48.942;9.104;2023-02-24T03:19:27;33.43;;;27.37;;
8104;SDS011;4095;48.942;9.104;2023-02-24T03:22:00;36.90;;;28.07;;
8104;SDS011;4095;48.942;9.104;2023-02-24T03:24:42;34.23;;;26.90;;
8104;SDS011;4095;48.942;9.104;2023-02-24T03:29:58;38.00;;;29.67;;
8104;SDS011;4095;48.942;9.104;2023-02-24T03:32:33;35.03;;;28.57;;
8104;SDS011;4095;48.942;9.104;2023-02-24T03:35:37;37.63;;;29.63;;
8104;SDS011;4095;48.942;9.104;2023-02-24T03:38:02;35.87;;;28.57;;
8104;SDS011;4095;48.942;9.104;2023-02-24T03:40:30;40.43;;;30.30;;
8104;SDS011;4095;48.942;9.104;2023-02-24T03:43:02;38.33;;;29.37;;
8104;SDS011;4095;48.942;9.104;2023-02-24T03:45:37;37.37;;;28.93;;
8104;SDS011;4095;48.942;9.104;2023-02-24T03:48:05;38.63;;;30.13;;
8104;SDS011;4095;48.942;9.104;2023-02-24T03:50:33;41.77;;;30.93;;
8104;SDS011;4095;48.942;9.104;2023-02-24T03:56:03;37.63;;;29.47;;
8104;SDS011;4095;48.942;9.104;2023-02-24T04:01:44;42.23;;;31.77;;
8104;SDS011;4095;48.942;9.104;2023-02-24T04:07:13;43.07;;;30.20;;
8104;SDS011;4095;48.942;9.104;2023-02-24T04:10:02;38.67;;;29.33;;
8104;SDS011;4095;48.942;9.104;2023-02-24T04:15:13;40.03;;;30.67;;
8104;SDS011;4095;48.942;9.104;2023-02-24T04:17:54;41.03;;;32.00;;
8104;SDS011;4095;48.942;9.104;2023-02-24T04:20:23;42.10;;;31.87;;
8104;SDS011;4095;48.942;9.104;2023-02-24T04:23:02;42.70;;;31.77;;
8104;SDS011;4095;48.942;9.104;2023-02-24T04:25:35;43.67;;;31.50;;
8104;SDS011;4095;48.942;9.104;2023-02-24T04:28:02;40.07;;;31.20;;
8104;SDS011;4095;48.942;9.104;2023-02-24T04:30:34;45.10;;;32.80;;
8104;SDS011;4095;48.942;9.104;2023-02-24T04:33:02;43.83;;;33.23;;
8104;SDS011;4095;48.942;9.104;2023-02-24T04:35:28;42.73;;;32.90;;
8104;SDS011;4095;48.942;9.104;2023-02-24T04:37:54;44.30;;;33.87;;
8104;SDS011;4095;48.942;9.104;2023-02-24T04:40:21;42.17;;;32.77;;
8104;SDS011;4095;48.942;9.104;2023-02-24T04:42:48;45.00;;;34.60;;
8104;SDS011;4095;48.942;9.104;2023-02-24T04:45:16;44.77;;;33.07;;
8104;SDS011;4095;48.942;9.104;2023-02-24T04:47:49;48.47;;;34.27;;
8104;SDS011;4095;48.942;9.104;2023-02-24T04:50:17;45.90;;;33.03;;
8104;SDS011;4095;48.942;9.104;2023-02-24T04:52:57;48.43;;;34.40;;
8104;SDS011;4095;48.942;9.104;2023-02-24T04:55:27;44.97;;;32.70;;
8104;SDS011;4095;48.942;9.104;2023-02-24T04:57:57;49.13;;;34.60;;
8104;SDS011;4095;48.942;9.104;2023-02-24T05:00:24;50.37;;;36.13;;
8104;SDS011;4095;48.942;9.104;2023-02-24T05:02:58;45.63;;;33.97;;
8104;SDS011;4095;48.942;9.104;2023-02-24T05:05:25;50.37;;;35.20;;
8104;SDS011;4095;48.942;9.104;2023-02-24T05:07:52;51.93;;;36.37;;
8104;SDS011;4095;48.942;9.104;2023-02-24T05:10:27;48.23;;;35.23;;
8104;SDS011;4095;48.942;9.104;2023-02-24T05:12:54;50.07;;;35.33;;
8104;SDS011;4095;48.942;9.104;2023-02-24T05:15:24;50.73;;;35.17;;
8104;SDS011;4095;48.942;9.104;2023-02-24T05:17:59;53.83;;;36.53;;
8104;SDS011;4095;48.942;9.104;2023-02-24T05:20:31;52.57;;;35.57;;
8104;SDS011;4095;48.942;9.104;2023-02-24T05:23:26;51.93;;;36.80;;
8104;SDS011;4095;48.942;9.104;2023-02-24T05:25:59;53.30;;;35.63;;
8104;SDS011;4095;48.942;9.104;2023-02-24T05:28:26;55.83;;;37.07;;
8104;SDS011;4095;48.942;9.104;2023-02-24T05:31:02;52.83;;;36.40;;
8104;SDS011;4095;48.942;9.104;2023-02-24T05:33:30;52.57;;;35.93;;
8104;SDS011;4095;48.942;9.104;2023-02-24T05:35:55;52.87;;;36.93;;
8104;SDS011;4095;48.942;9.104;2023-02-24T05:38:27;52.97;;;34.57;;
8104;SDS011;4095;48.942;9.104;2023-02-24T05:40:53;48.63;;;32.40;;
8104;SDS011;4095;48.942;9.104;2023-02-24T05:43:28;49.13;;;33.47;;
8104;SDS011;4095;48.942;9.104;2023-02-24T05:45:55;47.60;;;32.53;;
8104;SDS011;4095;48.942;9.104;2023-02-24T05:48:31;49.30;;;33.20;;
8104;SDS011;4095;48.942;9.104;2023-02-24T05:51:03;49.47;;;32.47;;
8104;SDS011;4095;48.942;9.104;2023-02-24T05:53:32;47.97;;;31.33;;
8104;SDS011;4095;48.942;9.104;2023-02-24T05:56:01;49.50;;;32.17;;
8104;SDS011;4095;48.942;9.104;2023-02-24T05:58:29;52.03;;;34.00;;
8104;SDS011;4095;48.942;9.104;2023-02-24T06:00:56;51.70;;;31.90;;
8104;SDS011;4095;48.942;9.104;2023-02-24T06:03:23;49.13;;;30.70;;
8104;SDS011;4095;48.942;9.104;2023-02-24T06:05:55;55.37;;;33.77;;
8104;SDS011;4095;48.942;9.104;2023-02-24T06:08:29;55.83;;;31.83;;
8104;SDS011;4095;48.942;9.104;2023-02-24T06:11:06;55.47;;;32.80;;
8104;SDS011;4095;48.942;9.104;2023-02-24T06:13:38;48.43;;;31.57;;
8104;SDS011;4095;48.942;9.104;2023-02-24T06:16:06;53.30;;;31.80;;
8104;SDS011;4095;48.942;9.104;2023-02-24T06:18:32;48.50;;;30.23;;
8104;SDS011;4095;48.942;9.104;2023-02-24T06:21:00;48.23;;;31.90;;
8104;SDS011;4095;48.942;9.104;2023-02-24T06:23:27;51.57;;;32.97;;
8104;SDS011;4095;48.942;9.104;2023-02-24T06:25:52;50.67;;;30.47;;
8104;SDS011;4095;48.942;9.104;2023-02-24T06:28:21;49.60;;;31.80;;
8104;SDS011;4095;48.942;9.104;2023-02-24T06:30:48;50.53;;;31.67;;
8104;SDS011;4095;48.942;9.104;2023-02-24T06:33:14;50.13;;;32.10;;
8104;SDS011;4095;48.942;9.104;2023-02-24T06:35:40;52.47;;;32.07;;
8104;SDS011;4095;48.942;9.104;2023-02-24T06:38:06;49.93;;;31.43;;
8104;SDS011;4095;48.942;9.104;2023-02-24T06:40:32;53.30;;;32.47;;
8104;SDS011;4095;48.942;9.104;2023-02-24T06:42:57;48.33;;;30.80;;
8104;SDS011;4095;48.942;9.104;2023-02-24T06:45:23;56.70;;;33.20;;
8104;SDS011;4095;48.942;9.104;2023-02-24T06:47:50;53.53;;;32.30;;
8104;SDS011;4095;48.942;9.104;2023-02-24T06:50:16;52.40;;;31.63;;
8104;SDS011;4095;48.942;9.104;2023-02-24T06:52:44;54.23;;;33.10;;
8104;SDS011;4095;48.942;9.104;2023-02-24T06:55:13;49.97;;;31.47;;
8104;SDS011;4095;48.942;9.104;2023-02-24T06:57:59;54.17;;;32.37;;
8104;SDS011;4095;48.942;9.104;2023-02-24T07:00:32;49.90;;;31.67;;
8104;SDS011;4095;48.942;9.104;2023-02-24T07:03:05;48.90;;;30.63;;
8104;SDS011;4095;48.942;9.104;2023-02-24T07:05:48;51.97;;;32.20;;
8104;SDS011;4095;48.942;9.104;2023-02-24T07:08:22;53.53;;;32.90;;
8104;SDS011;4095;48.942;9.104;2023-02-24T07:10:57;50.90;;;32.43;;
8104;SDS011;4095;48.942;9.104;2023-02-24T07:13:24;50.00;;;30.53;;
8104;SDS011;4095;48.942;9.104;2023-02-24T07:15:52;50.17;;;31.40;;
8104;SDS011;4095;48.942;9.104;2023-02-24T07:18:18;49.00;;;31.07;;
8104;SDS011;4095;48.942;9.104;2023-02-24T07:20:44;49.90;;;30.43;;
8104;SDS011;4095;48.942;9.104;2023-02-24T07:23:11;52.03;;;30.70;;
8104;SDS011;4095;48.942;9.104;2023-02-24T07:25:39;55.20;;;32.13;;
8104;SDS011;4095;48.942;9.104;2023-02-24T07:28:05;51.90;;;32.13;;
8104;SDS011;4095;48.942;9.104;2023-02-24T07:30:31;50.83;;;31.17;;
8104;SDS011;4095;48.942;9.104;2023-02-24T07:32:58;56.37;;;31.43;;
8104;SDS011;4095;48.942;9.104;2023-02-24T07:35:24;54.70;;;32.07;;
8104;SDS011;4095;48.942;9.104;2023-02-24T07:37:50;49.00;;;30.47;;
8104;SDS011;4095;48.942;9.104;2023-02-24T07:40:16;52.37;;;31.40;;
8104;SDS011;4095;48.942;9.104;2023-02-24T07:42:45;55.87;;;31.90;;
8104;SDS011;4095;48.942;9.104;2023-02-24T07:45:12;53.07;;;32.23;;
8104;SDS011;4095;48.942;9.104;2023-02-24T07:47:38;51.53;;;31.63;;
8104;SDS011;4095;48.942;9.104;2023-02-24T07:50:05;54.20;;;32.73;;
8104;SDS011;4095;48.942;9.104;2023-02-24T07:52:37;53.93;;;32.43;;
8104;SDS011;4095;48.942;9.104;2023-02-24T07:55:03;49.53;;;32.23;;
8104;SDS011;4095;48.942;9.104;2023-02-24T07:57:29;55.57;;;32.60;;
8104;SDS011;4095;48.942;9.104;2023-02-24T07:59:57;56.60;;;31.83;;
8104;SDS011;4095;48.942;9.104;2023-02-24T08:02:24;55.17;;;32.03;;
8104;SDS011;4095;48.942;9.104;2023-02-24T08:04:50;52.40;;;32.27;;
8104;SDS011;4095;48.942;9.104;2023-02-24T08:07:19;53.53;;;31.87;;
8104;SDS011;4095;48.942;9.104;2023-02-24T08:09:48;51.47;;;31.93;;
8104;SDS011;4095;48.942;9.104;2023-02-24T08:12:32;55.47;;;32.27;;
8104;SDS011;4095;48.942;9.104;2023-02-24T08:15:00;53.10;;;31.57;;
8104;SDS011;4095;48.942;9.104;2023-02-24T08:17:32;54.50;;;32.73;;
8104;SDS011;4095;48.942;9.104;2023-02-24T08:19:58;54.87;;;32.07;;
8104;SDS011;4095;48.942;9.104;2023-02-24T08:22:42;56.60;;;32.93;;
8104;SDS011;4095;48.942;9.104;2023-02-24T08:25:11;63.87;;;34.23;;
8104;SDS011;4095;48.942;9.104;2023-02-24T08:27:42;60.77;;;33.60;;
8104;SDS011;4095;48.942;9.104;2023-02-24T08:30:09;61.97;;;33.40;;
8104;SDS011;4095;48.942;9.104;2023-02-24T08:32:47;65.80;;;33.90;;
8104;SDS011;4095;48.942;9.104;2023-02-24T08:35:21;65.53;;;34.40;;
8104;SDS011;4095;48.942;9.104;2023-02-24T08:37:52;65.50;;;33.97;;
8104;SDS011;4095;48.942;9.104;2023-02-24T08:40:20;66.17;;;33.90;;
8104;SDS011;4095;48.942;9.104;2023-02-24T08:42:58;70.67;;;35.33;;
8104;SDS011;4095;48.942;9.104;2023-02-24T08:51:20;75.20;;;36.23;;
8104;SDS011;4095;48.942;9.104;2023-02-24T08:53:49;75.17;;;37.70;;
8104;SDS011;4095;48.942;9.104;2023-02-24T08:56:17;67.03;;;36.23;;
8104;SDS011;4095;48.942;9.104;2023-02-24T08:58:48;73.30;;;35.93;;
8104;SDS011;4095;48.942;9.104;2023-02-24T09:01:21;68.17;;;35.43;;
8104;SDS011;4095;48.942;9.104;2023-02-24T09:03:56;68.20;;;34.73;;
8104;SDS011;4095;48.942;9.104;2023-02-24T09:06:45;60.30;;;32.70;;
8104;SDS011;4095;48.942;9.104;2023-02-24T09:09:15;54.80;;;30.93;;
8104;SDS011;4095;48.942;9.104;2023-02-24T09:14:14;61.67;;;33.10;;
8104;SDS011;4095;48.942;9.104;2023-02-24T09:16:48;64.37;;;32.07;;
8104;SDS011;4095;48.942;9.104;2023-02-24T09:19:27;66.30;;;33.53;;
8104;SDS011;4095;48.942;9.104;2023-02-24T09:22:23;64.97;;;32.73;;
8104;SDS011;4095;48.942;9.104;2023-02-24T09:27:42;57.67;;;31.63;;
8104;SDS011;4095;48.942;9.104;2023-02-24T09:30:16;62.00;;;32.23;;
8104;SDS011;4095;48.942;9.104;2023-02-24T09:33:43;64.13;;;33.50;;
8104;SDS011;4095;48.942;9.104;2023-02-24T09:38:18;61.20;;;34.30;;
8104;SDS011;4095;48.942;9.104;2023-02-24T09:41:07;64.77;;;33.50;;
8104;SDS011;4095;48.942;9.104;2023-02-24T09:43:55;70.63;;;34.50;;
8104;SDS011;4095;48.942;9.104;2023-02-24T09:46:28;66.87;;;34.50;;
8104;SDS011;4095;48.942;9.104;2023-02-24T09:49:10;73.10;;;34.77;;
8104;SDS011;4095;48.942;9.104;2023-02-24T09:51:41;68.07;;;33.40;;
8104;SDS011;4095;48.942;9.104;2023-02-24T09:54:17;66.43;;;33.70;;
8104;SDS011;4095;48.942;9.104;2023-02-24T09:56:53;66.23;;;34.47;;
8104;SDS011;4095;48.942;9.104;2023-02-24T10:05:42;63.00;;;34.00;;
8104;SDS011;4095;48.942;9.104;2023-02-24T10:08:36;63.93;;;32.53;;
8104;SDS011;4095;48.942;9.104;2023-02-24T10:11:10;58.40;;;31.83;;
8104;SDS011;4095;48.942;9.104;2023-02-24T10:13:40;63.60;;;33.53;;
8104;SDS011;4095;48.942;9.104;2023-02-24T10:16:13;61.67;;;33.30;;
8104;SDS011;4095;48.942;9.104;2023-02-24T10:19:02;65.97;;;33.23;;
8104;SDS011;4095;48.942;9.104;2023-02-24T10:21:54;58.83;;;31.67;;
8104;SDS011;4095;48.942;9.104;2023-02-24T10:29:40;54.50;;;30.00;;
8104;SDS011;4095;48.942;9.104;2023-02-24T10:34:58;55.93;;;29.97;;
8104;SDS011;4095;48.942;9.104;2023-02-24T10:37:26;56.97;;;31.37;;
8104;SDS011;4095;48.942;9.104;2023-02-24T10:39:57;59.53;;;32.20;;
8104;SDS011;4095;48.942;9.104;2023-02-24T10:42:28;59.40;;;31.53;;
8104;SDS011;4095;48.942;9.104;2023-02-24T10:45:04;59.00;;;30.30;;
8104;SDS011;4095;48.942;9.104;2023-02-24T10:47:54;65.77;;;33.13;;
8104;SDS011;4095;48.942;9.104;2023-02-24T10:50:22;61.63;;;32.43;;
8104;SDS011;4095;48.942;9.104;2023-02-24T10:52:48;60.20;;;31.63;;
8104;SDS011;4095;48.942;9.104;2023-02-24T10:55:22;61.80;;;32.17;;
8104;SDS011;4095;48.942;9.104;2023-02-24T10:58:29;56.93;;;30.27;;
8104;SDS011;4095;48.942;9.104;2023-02-24T11:01:30;67.13;;;33.07;;
8104;SDS011;4095;48.942;9.104;2023-02-24T11:04:18;61.10;;;32.07;;
8104;SDS011;4095;48.942;9.104;2023-02-24T11:07:14;63.27;;;32.07;;
8104;SDS011;4095;48.942;9.104;2023-02-24T11:12:36;68.10;;;34.47;;
8104;SDS011;4095;48.942;9.104;2023-02-24T11:15:34;64.00;;;33.57;;
8104;SDS011;4095;48.942;9.104;2023-02-24T11:18:20;64.57;;;32.57;;
8104;SDS011;4095;48.942;9.104;2023-02-24T11:20:56;64.33;;;33.30;;
8104;SDS011;4095;48.942;9.104;2023-02-24T11:23:26;59.67;;;32.07;;
8104;SDS011;4095;48.942;9.104;2023-02-24T11:26:05;62.67;;;33.17;;
8104;SDS011;4095;48.942;9.104;2023-02-24T11:41:57;58.63;;;31.73;;
8104;SDS011;4095;48.942;9.104;2023-02-24T11:44:29;59.97;;;32.00;;
8104;SDS011;4095;48.942;9.104;2023-02-24T11:47:07;59.23;;;32.10;;
8104;SDS011;4095;48.942;9.104;2023-02-24T11:49:45;54.10;;;30.27;;
8104;SDS011;4095;48.942;9.104;2023-02-24T11:52:30;59.50;;;30.50;;
8104;SDS011;4095;48.942;9.104;2023-02-24T11:55:02;52.97;;;30.80;;
8104;SDS011;4095;48.942;9.104;2023-02-24T11:57:38;54.97;;;30.03;;
8104;SDS011;4095;48.942;9.104;2023-02-24T12:05:38;53.00;;;30.53;;
8104;SDS011;4095;48.942;9.104;2023-02-24T12:10:34;46.63;;;28.83;;
8104;SDS011;4095;48.942;9.104;2023-02-24T12:18:41;42.83;;;27.63;;
8104;SDS011;4095;48.942;9.104;2023-02-24T12:21:30;47.60;;;28.07;;
8104;SDS011;4095;48.942;9.104;2023-02-24T12:24:08;47.30;;;28.50;;
8104;SDS011;4095;48.942;9.104;2023-02-24T12:40:45;44.27;;;25.70;;
8104;SDS011;4095;48.942;9.104;2023-02-24T12:51:10;46.10;;;27.97;;
8104;SDS011;4095;48.942;9.104;2023-02-24T12:59:13;42.60;;;24.73;;
8104;SDS011;4095;48.942;9.104;2023-02-24T13:02:00;37.77;;;23.97;;
8104;SDS011;4095;48.942;9.104;2023-02-24T13:04:35;40.27;;;24.83;;
8104;SDS011;4095;48.942;9.104;2023-02-24T13:12:52;49.97;;;29.00;;
8104;SDS011;4095;48.942;9.104;2023-02-24T13:15:32;41.00;;;24.83;;
8104;SDS011;4095;48.942;9.104;2023-02-24T13:17:58;36.13;;;22.60;;
8104;SDS011;4095;48.942;9.104;2023-02-24T13:20:31;41.13;;;24.10;;
8104;SDS011;4095;48.942;9.104;2023-02-24T13:22:59;37.60;;;23.60;;
8104;SDS011;4095;48.942;9.104;2023-02-24T13:25:36;35.57;;;21.27;;
8104;SDS011;4095;48.942;9.104;2023-02-24T13:28:03;36.60;;;22.23;;
8104;SDS011;4095;48.942;9.104;2023-02-24T13:30:45;36.93;;;22.07;;
8104;SDS011;4095;48.942;9.104;2023-02-24T13:35:43;37.07;;;20.83;;
8104;SDS011;4095;48.942;9.104;2023-02-24T13:38:24;36.73;;;20.90;;
8104;SDS011;4095;48.942;9.104;2023-02-24T13:40:50;32.13;;;20.27;;
8104;SDS011;4095;48.942;9.104;2023-02-24T13:43:20;30.93;;;19.83;;
8104;SDS011;4095;48.942;9.104;2023-02-24T13:45:52;34.00;;;21.07;;
8104;SDS011;4095;48.942;9.104;2023-02-24T13:51:45;34.70;;;20.70;;
8104;SDS011;4095;48.942;9.104;2023-02-24T14:02:52;32.67;;;21.37;;
8104;SDS011;4095;48.942;9.104;2023-02-24T14:05:23;30.30;;;19.97;;
8104;SDS011;4095;48.942;9.104;2023-02-24T14:07:51;32.63;;;20.03;;
8104;SDS011;4095;48.942;9.104;2023-02-24T14:10:19;30.03;;;19.47;;
8104;SDS011;4095;48.942;9.104;2023-02-24T14:12:49;33.50;;;20.30;;
8104;SDS011;4095;48.942;9.104;2023-02-24T14:15:25;30.43;;;19.97;;
8104;SDS011;4095;48.942;9.104;2023-02-24T14:17:55;29.90;;;20.63;;
8104;SDS011;4095;48.942;9.104;2023-02-24T14:20:24;31.87;;;20.23;;
8104;SDS011;4095;48.942;9.104;2023-02-24T14:22:51;32.97;;;19.30;;
8104;SDS011;4095;48.942;9.104;2023-02-24T14:25:23;33.67;;;20.90;;
8104;SDS011;4095;48.942;9.104;2023-02-24T14:27:51;35.47;;;22.83;;
8104;SDS011;4095;48.942;9.104;2023-02-24T14:30:38;33.17;;;21.53;;
8104;SDS011;4095;48.942;9.104;2023-02-24T14:33:05;29.37;;;19.60;;
8104;SDS011;4095;48.942;9.104;2023-02-24T14:35:36;35.00;;;22.57;;
8104;SDS011;4095;48.942;9.104;2023-02-24T14:38:06;30.23;;;20.50;;
8104;SDS011;4095;48.942;9.104;2023-02-24T14:40:50;33.17;;;21.37;;
8104;SDS011;4095;48.942;9.104;2023-02-24T14:43:16;32.33;;;21.17;;
8104;SDS011;4095;48.942;9.104;2023-02-24T14:45:46;29.47;;;19.00;;
8104;SDS011;4095;48.942;9.104;2023-02-24T14:48:23;28.20;;;20.83;;
8104;SDS011;4095;48.942;9.104;2023-02-24T14:50:49;32.43;;;19.47;;
8104;SDS011;4095;48.942;9.104;2023-02-24T14:53:16;31.33;;;21.00;;
8104;SDS011;4095;48.942;9.104;2023-02-24T14:55:47;33.53;;;19.50;;
8104;SDS011;4095;48.942;9.104;2023-02-24T14:58:18;33.87;;;20.53;;
8104;SDS011;4095;48.942;9.104;2023-02-24T15:01:01;32.70;;;19.67;;
8104;SDS011;4095;48.942;9.104;2023-02-24T15:03:45;30.80;;;20.30;;
8104;SDS011;4095;48.942;9.104;2023-02-24T15:06:16;29.33;;;18.63;;
8104;SDS011;4095;48.942;9.104;2023-02-24T15:08:47;27.90;;;19.47;;
8104;SDS011;4095;48.942;9.104;2023-02-24T15:13:46;31.40;;;19.63;;
8104;SDS011;4095;48.942;9.104;2023-02-24T15:16:22;29.30;;;19.60;;
8104;SDS011;4095;48.942;9.104;2023-02-24T15:18:49;28.87;;;19.80;;
8104;SDS011;4095;48.942;9.104;2023-02-24T15:21:20;28.63;;;18.60;;
8104;SDS011;4095;48.942;9.104;2023-02-24T15:23:59;36.70;;;23.70;;
8104;SDS011;4095;48.942;9.104;2023-02-24T15:26:30;35.27;;;23.23;;
8104;SDS011;4095;48.942;9.104;2023-02-24T15:29:01;33.07;;;21.70;;
8104;SDS011;4095;48.942;9.104;2023-02-24T15:31:36;33.90;;;20.10;;
8104;SDS011;4095;48.942;9.104;2023-02-24T15:34:02;39.93;;;27.97;;
8104;SDS011;4095;48.942;9.104;2023-02-24T15:36:34;36.53;;;24.33;;
8104;SDS011;4095;48.942;9.104;2023-02-24T15:39:15;44.40;;;30.57;;
8104;SDS011;4095;48.942;9.104;2023-02-24T15:41:45;32.70;;;21.17;;
8104;SDS011;4095;48.942;9.104;2023-02-24T15:44:27;32.67;;;20.83;;
8104;SDS011;4095;48.942;9.104;2023-02-24T15:46:55;32.00;;;23.03;;
8104;SDS011;4095;48.942;9.104;2023-02-24T15:49:22;33.20;;;23.60;;
8104;SDS011;4095;48.942;9.104;2023-02-24T15:51:48;29.00;;;19.33;;
8104;SDS011;4095;48.942;9.104;2023-02-24T15:56:58;27.40;;;17.83;;
8104;SDS011;4095;48.942;9.104;2023-02-24T15:59:26;25.40;;;17.00;;
8104;SDS011;4095;48.942;9.104;2023-02-24T16:01:52;24.23;;;15.83;;
8104;SDS011;4095;48.942;9.104;2023-02-24T16:04:18;24.03;;;16.30;;
8104;SDS011;4095;48.942;9.104;2023-02-24T16:06:44;24.30;;;16.53;;
8104;SDS011;4095;48.942;9.104;2023-02-24T16:09:18;23.87;;;15.83;;
8104;SDS011;4095;48.942;9.104;2023-02-24T16:11:52;23.83;;;15.53;;
8104;SDS011;4095;48.942;9.104;2023-02-24T16:14:18;23.50;;;14.33;;
8104;SDS011;4095;48.942;9.104;2023-02-24T16:16:43;22.70;;;15.60;;
8104;SDS011;4095;48.942;9.104;2023-02-24T16:19:11;26.10;;;15.47;;
8104;SDS011;4095;48.942;9.104;2023-02-24T16:21:38;20.73;;;13.97;;
8104;SDS011;4095;48.942;9.104;2023-02-24T16:24:04;21.20;;;14.47;;
8104;SDS011;4095;48.942;9.104;2023-02-24T16:26:30;22.70;;;14.93;;
8104;SDS011;4095;48.942;9.104;2023-02-24T16:29:00;25.17;;;15.40;;
8104;SDS011;4095;48.942;9.104;2023-02-24T16:31:25;22.80;;;14.57;;
8104;SDS011;4095;48.942;9.104;2023-02-24T16:33:52;23.80;;;14.87;;
8104;SDS011;4095;48.942;9.104;2023-02-24T16:36:18;21.83;;;13.97;;
8104;SDS011;4095;48.942;9.104;2023-02-24T16:38:44;21.80;;;14.43;;
8104;SDS011;4095;48.942;9.104;2023-02-24T16:41:11;22.67;;;14.37;;
8104;SDS011;4095;48.942;9.104;2023-02-24T16:43:37;21.93;;;14.90;;
8104;SDS011;4095;48.942;9.104;2023-02-24T16:46:03;21.67;;;14.13;;
8104;SDS011;4095;48.942;9.104;2023-02-24T16:48:31;22.30;;;15.20;;
8104;SDS011;4095;48.942;9.104;2023-02-24T16:51:01;23.57;;;14.80;;
8104;SDS011;4095;48.942;9.104;2023-02-24T16:53:29;20.80;;;14.67;;
8104;SDS011;4095;48.942;9.104;2023-02-24T16:55:55;22.23;;;15.30;;
8104;SDS011;4095;48.942;9.104;2023-02-24T16:58:21;21.77;;;15.50;;
8104;SDS011;4095;48.942;9.104;2023-02-24T17:00:50;25.33;;;16.37;;
8104;SDS011;4095;48.942;9.104;2023-02-24T17:03:22;23.57;;;16.77;;
8104;SDS011;4095;48.942;9.104;2023-02-24T17:06:08;25.60;;;15.93;;
8104;SDS011;4095;48.942;9.104;2023-02-24T17:08:34;26.23;;;16.97;;
8104;SDS011;4095;48.942;9.104;2023-02-24T17:11:00;26.87;;;17.07;;
8104;SDS011;4095;48.942;9.104;2023-02-24T17:13:25;23.37;;;15.53;;
8104;SDS011;4095;48.942;9.104;2023-02-24T17:15:51;25.30;;;16.83;;
8104;SDS011;4095;48.942;9.104;2023-02-24T17:18:21;22.17;;;15.40;;
8104;SDS011;4095;48.942;9.104;2023-02-24T17:20:48;21.60;;;15.40;;
8104;SDS011;4095;48.942;9.104;2023-02-24T17:23:13;21.20;;;15.13;;
8104;SDS011;4095;48.942;9.104;2023-02-24T17:25:39;23.90;;;15.67;;
8104;SDS011;4095;48.942;9.104;2023-02-24T17:28:05;23.60;;;15.93;;
8104;SDS011;4095;48.942;9.104;2023-02-24T17:30:32;21.70;;;15.67;;
8104;SDS011;4095;48.942;9.104;2023-02-24T17:32:59;23.67;;;16.43;;
8104;SDS011;4095;48.942;9.104;2023-02-24T17:35:25;25.17;;;16.73;;
8104;SDS011;4095;48.942;9.104;2023-02-24T17:37:51;22.80;;;15.40;;
8104;SDS011;4095;48.942;9.104;2023-02-24T17:40:17;24.87;;;16.07;;
8104;SDS011;4095;48.942;9.104;2023-02-24T17:42:43;22.93;;;16.27;;
8104;SDS011;4095;48.942;9.104;2023-02-24T17:45:09;27.57;;;17.13;;
8104;SDS011;4095;48.942;9.104;2023-02-24T17:47:36;22.73;;;16.60;;
8104;SDS011;4095;48.942;9.104;2023-02-24T17:50:03;25.47;;;16.37;;
8104;SDS011;4095;48.942;9.104;2023-02-24T17:52:29;23.63;;;17.07;;
8104;SDS011;4095;48.942;9.104;2023-02-24T17:54:55;23.17;;;16.00;;
8104;SDS011;4095;48.942;9.104;2023-02-24T17:57:21;27.00;;;15.67;;